Time;durP1;ratioP1;P1;durP2;ratioP2;P2;SDS_P1;SDS_P2;PMS_P1;PMS_P2;Temp;Humidity;BMP_temperature;BMP_pressure;BME280_temperature;BME280_humidity;BME280_pressure;Samples;Min_cycle;Max_cycle;Signal;HPM_P1;HPM_P2
2023/07/03 00:00:49;;;;;;;17.13;8.43;;;;;;;14.37;89.56;100066.38;5011532;28;20226;-65
2023/07/03 00:03:16;;;;;;;14.67;7.73;;;;;;;14.23;90.76;100066.50;5003421;28;20224;-66
2023/07/03 00:05:44;;;;;;;16.17;7.80;;;;;;;14.15;91.15;100071.00;5005420;28;20193;-66
2023/07/03 00:08:11;;;;;;;19.23;8.37;;;;;;;14.07;91.59;100064.84;5009116;28;20200;-65
2023/07/03 00:10:37;;;;;;;17.77;8.70;;;;;;;14.10;92.55;100068.38;5005376;28;20206;-67
2023/07/03 00:13:04;;;;;;;15.13;7.73;;;;;;;14.13;92.01;100077.22;5010259;28;20602;-67
2023/07/03 00:15:30;;;;;;;18.50;8.13;;;;;;;14.22;92.12;100071.84;5006363;28;20196;-65
2023/07/03 00:17:57;;;;;;;17.50;8.43;;;;;;;14.23;91.53;100077.16;5007981;28;20646;-67
2023/07/03 00:20:24;;;;;;;16.90;8.03;;;;;;;14.24;91.67;100073.59;5007732;28;20200;-66
2023/07/03 00:22:52;;;;;;;19.20;8.53;;;;;;;14.45;89.34;100071.72;5001634;28;20222;-66
2023/07/03 00:25:19;;;;;;;17.93;7.93;;;;;;;14.40;90.27;100067.25;5008196;28;20684;-65
2023/07/03 00:27:46;;;;;;;19.30;8.80;;;;;;;14.37;91.01;100079.72;5006387;28;20195;-66
2023/07/03 00:30:13;;;;;;;18.70;8.63;;;;;;;14.24;92.54;100064.72;5002344;28;20219;-67
2023/07/03 00:32:40;;;;;;;16.53;8.00;;;;;;;14.15;92.81;100071.00;5002705;28;20308;-67
2023/07/03 00:35:07;;;;;;;21.13;8.33;;;;;;;14.09;93.77;100066.59;5004860;28;20223;-66
2023/07/03 00:37:34;;;;;;;19.20;8.43;;;;;;;14.10;93.95;100073.69;5004239;28;20298;-66
2023/07/03 00:40:00;;;;;;;17.03;8.50;;;;;;;14.00;94.31;100077.28;5004595;28;20278;-65
2023/07/03 00:42:28;;;;;;;16.33;8.47;;;;;;;13.87;95.36;100072.91;5009501;28;20216;-67
2023/07/03 00:44:55;;;;;;;19.43;8.10;;;;;;;13.91;95.64;100072.00;5006999;28;20200;-66
2023/07/03 00:47:23;;;;;;;20.00;8.40;;;;;;;13.92;96.36;100070.22;5006219;28;20188;-67
2023/07/03 00:49:50;;;;;;;17.33;7.80;;;;;;;13.89;97.27;100071.13;5003514;28;20276;-66
2023/07/03 00:52:17;;;;;;;17.67;9.10;;;;;;;13.76;97.39;100077.41;5010324;28;20315;-67
2023/07/03 00:54:43;;;;;;;13.60;7.90;;;;;;;13.77;98.23;100072.09;5009473;28;20282;-67
2023/07/03 00:57:12;;;;;;;17.40;8.07;;;;;;;13.83;98.74;100078.28;5003266;28;20256;-68
2023/07/03 00:59:39;;;;;;;18.13;8.50;;;;;;;13.91;98.12;100079.09;5003874;28;20192;-67
2023/07/03 01:02:15;;;;;;;19.23;9.20;;;;;;;13.89;97.71;100084.44;5009265;28;20319;-67
2023/07/03 01:04:51;;;;;;;19.93;8.27;;;;;;;13.82;98.49;100079.16;5003195;28;20197;-66
2023/07/03 01:07:25;;;;;;;15.40;8.47;;;;;;;13.75;98.79;100078.31;5005772;28;20218;-66
2023/07/03 01:10:07;;;;;;;14.13;7.30;;;;;;;13.58;99.56;100081.03;5000781;28;20286;-67
2023/07/03 01:12:38;;;;;;;18.70;7.67;;;;;;;13.71;100.00;100082.75;4995640;28;20306;-68
2023/07/03 01:15:08;;;;;;;17.00;8.53;;;;;;;13.62;100.00;100079.28;5001808;28;20676;-67
2023/07/03 01:17:38;;;;;;;15.60;7.97;;;;;;;13.58;100.00;100077.47;4990681;28;20221;-67
2023/07/03 01:20:06;;;;;;;17.97;8.27;;;;;;;13.71;100.00;100080.09;4998430;28;20204;-67
2023/07/03 01:22:44;;;;;;;16.03;7.97;;;;;;;13.61;100.00;100074.81;5009418;28;20256;-67
2023/07/03 01:25:15;;;;;;;19.83;7.77;;;;;;;13.54;100.00;100073.06;5005989;28;20207;-69
2023/07/03 01:27:44;;;;;;;20.43;8.27;;;;;;;13.45;100.00;100081.97;5009847;28;20188;-67
2023/07/03 01:30:14;;;;;;;16.47;7.97;;;;;;;13.26;100.00;100083.81;5008342;28;20299;-69
2023/07/03 01:32:45;;;;;;;17.60;8.10;;;;;;;13.12;100.00;100081.13;5003268;28;20302;-68
2023/07/03 01:35:14;;;;;;;25.00;9.10;;;;;;;13.04;100.00;100085.56;5001941;28;20207;-69
2023/07/03 01:37:44;;;;;;;17.13;8.73;;;;;;;12.98;100.00;100088.25;5007231;28;20226;-68
2023/07/03 01:40:14;;;;;;;20.13;8.33;;;;;;;13.14;100.00;100089.09;5006946;28;20238;-68
2023/07/03 01:42:41;;;;;;;16.93;8.00;;;;;;;13.02;100.00;100082.03;5003123;28;20703;-67
2023/07/03 01:45:09;;;;;;;18.13;8.47;;;;;;;13.16;100.00;100084.66;5006568;28;20767;-67
2023/07/03 01:47:37;;;;;;;16.97;8.27;;;;;;;13.17;100.00;100087.34;5007376;28;20191;-67
2023/07/03 01:50:07;;;;;;;18.23;8.63;;;;;;;13.09;100.00;100081.13;5006259;28;20668;-67
2023/07/03 01:52:39;;;;;;;17.93;8.60;;;;;;;13.17;100.00;100081.16;5007843;28;20310;-69
2023/07/03 01:55:15;;;;;;;18.73;8.13;;;;;;;13.34;100.00;100071.38;5011550;28;20231;-67
2023/07/03 01:58:05;;;;;;;18.73;8.33;;;;;;;13.33;100.00;100076.69;5006887;28;20217;-70
2023/07/03 02:00:40;;;;;;;18.57;8.90;;;;;;;13.40;100.00;100074.00;5000865;28;20197;-73
2023/07/03 02:03:18;;;;;;;19.30;8.40;;;;;;;13.31;100.00;100076.69;5002881;28;20291;-71
2023/07/03 02:05:46;;;;;;;22.83;8.53;;;;;;;13.38;100.00;100077.56;5012754;28;20204;-71
2023/07/03 02:08:15;;;;;;;21.20;8.43;;;;;;;13.31;100.00;100086.44;5011482;28;20200;-70
2023/07/03 02:10:42;;;;;;;18.67;8.20;;;;;;;13.23;100.00;100080.28;5013374;28;20204;-68
2023/07/03 02:13:09;;;;;;;18.77;8.73;;;;;;;13.23;100.00;100081.16;5008887;28;20744;-68
2023/07/03 02:15:35;;;;;;;18.33;8.33;;;;;;;13.22;100.00;100084.72;5006041;28;20213;-68
2023/07/03 02:18:02;;;;;;;22.27;9.47;;;;;;;13.23;100.00;100091.78;5000314;28;20228;-67
2023/07/03 02:20:28;;;;;;;20.10;8.70;;;;;;;13.35;100.00;100089.09;5006722;28;20295;-67
2023/07/03 02:22:56;;;;;;;21.07;9.50;;;;;;;13.40;100.00;100092.63;5011335;28;20307;-67
2023/07/03 02:25:22;;;;;;;20.30;9.00;;;;;;;13.50;100.00;100093.47;5009489;28;20235;-69
2023/07/03 02:27:50;;;;;;;19.50;8.93;;;;;;;13.44;100.00;100098.81;4997231;28;20276;-68
2023/07/03 02:30:16;;;;;;;18.20;8.53;;;;;;;13.51;100.00;100107.66;5005708;28;20224;-68
2023/07/03 02:32:43;;;;;;;21.00;9.00;;;;;;;13.48;100.00;100097.91;5011860;28;20213;-69
2023/07/03 02:35:10;;;;;;;19.37;8.67;;;;;;;13.57;100.00;100108.53;5011491;28;20196;-70
2023/07/03 02:37:37;;;;;;;18.17;8.90;;;;;;;13.64;100.00;100102.31;5012321;28;20257;-67
2023/07/03 02:40:08;;;;;;;19.13;8.97;;;;;;;13.47;100.00;100105.00;5012177;28;20573;-67
2023/07/03 02:42:35;;;;;;;16.77;8.27;;;;;;;13.48;100.00;100103.25;5000863;28;20342;-69
2023/07/03 02:45:03;;;;;;;18.07;8.70;;;;;;;13.40;100.00;100113.91;4998980;28;20204;-69
2023/07/03 02:47:33;;;;;;;16.33;8.60;;;;;;;13.31;100.00;100100.63;5008514;28;20203;-69
2023/07/03 02:50:02;;;;;;;16.43;8.40;;;;;;;13.42;100.00;100105.91;5011881;28;20702;-68
2023/07/03 02:52:29;;;;;;;19.77;9.40;;;;;;;13.63;100.00;100103.22;5004416;28;20227;-69
2023/07/03 02:54:55;;;;;;;21.80;8.83;;;;;;;13.55;100.00;100104.09;5001626;28;20207;-67
2023/07/03 02:57:22;;;;;;;20.83;9.67;;;;;;;13.53;100.00;100097.91;5012363;28;20200;-68
2023/07/03 02:59:48;;;;;;;20.07;8.50;;;;;;;13.47;100.00;100110.34;5011504;28;20207;-68
2023/07/03 03:02:15;;;;;;;17.57;8.20;;;;;;;13.50;100.00;100104.13;4997476;28;20315;-68
2023/07/03 03:04:41;;;;;;;18.80;8.70;;;;;;;13.37;100.00;100107.72;5006658;28;20197;-67
2023/07/03 03:07:08;;;;;;;18.90;9.10;;;;;;;13.29;100.00;100112.16;5007821;28;20640;-67
2023/07/03 03:09:34;;;;;;;21.63;8.97;;;;;;;13.18;100.00;100115.72;5005588;28;20267;-66
2023/07/03 03:12:01;;;;;;;23.80;8.50;;;;;;;13.05;100.00;100115.69;5010856;28;20240;-67
2023/07/03 03:14:27;;;;;;;20.80;8.13;;;;;;;12.92;100.00;100114.84;5010790;28;20207;-67
2023/07/03 03:16:53;;;;;;;20.77;9.27;;;;;;;12.84;100.00;100121.94;4999502;28;20683;-68
2023/07/03 03:19:20;;;;;;;18.37;8.60;;;;;;;12.76;100.00;100110.38;5003921;28;20739;-67
2023/07/03 03:21:49;;;;;;;16.60;8.10;;;;;;;12.74;100.00;100121.03;5004324;28;20224;-67
2023/07/03 03:24:17;;;;;;;18.70;8.47;;;;;;;12.68;100.00;100113.06;5009676;28;20194;-68
2023/07/03 03:26:43;;;;;;;22.17;9.23;;;;;;;12.75;100.00;100108.63;5006007;28;20214;-68
2023/07/03 03:29:10;;;;;;;17.80;8.93;;;;;;;12.73;100.00;100105.09;5005551;28;20196;-67
2023/07/03 03:31:36;;;;;;;18.93;9.27;;;;;;;12.78;100.00;100108.63;5011084;28;20198;-67
2023/07/03 03:34:03;;;;;;;22.53;8.20;;;;;;;12.74;100.00;100101.53;5006999;28;20267;-68
2023/07/03 03:36:32;;;;;;;18.87;8.60;;;;;;;12.78;100.00;100101.53;5008943;28;20247;-67
2023/07/03 03:38:59;;;;;;;17.73;8.90;;;;;;;12.90;100.00;100092.69;5010445;28;20230;-67
2023/07/03 03:41:25;;;;;;;18.17;9.57;;;;;;;12.97;100.00;100093.56;5011547;28;20204;-67
2023/07/03 03:43:51;;;;;;;18.87;8.67;;;;;;;12.99;100.00;100094.44;5003996;28;20683;-66
2023/07/03 03:46:18;;;;;;;18.73;8.70;;;;;;;12.99;100.00;100100.66;4996856;28;20378;-67
2023/07/03 03:48:44;;;;;;;19.93;9.37;;;;;;;13.03;100.00;100093.56;5009910;28;20199;-66
2023/07/03 03:51:11;;;;;;;18.90;8.83;;;;;;;12.97;100.00;100091.78;4996476;28;20708;-68
2023/07/03 03:53:39;;;;;;;24.07;9.37;;;;;;;12.94;100.00;100097.13;5000521;28;20228;-69
2023/07/03 03:56:05;;;;;;;21.87;9.47;;;;;;;12.94;100.00;100094.47;5002146;28;20255;-69
2023/07/03 03:58:31;;;;;;;19.63;8.53;;;;;;;13.02;100.00;100095.31;5006208;28;20588;-68
2023/07/03 04:00:58;;;;;;;19.53;9.37;;;;;;;13.11;100.00;100103.28;5009894;28;20204;-69
2023/07/03 04:03:24;;;;;;;19.17;8.70;;;;;;;13.13;100.00;100098.84;5002683;28;20399;-68
2023/07/03 04:05:51;;;;;;;22.03;8.53;;;;;;;13.17;100.00;100092.66;5003470;28;20269;-70
2023/07/03 04:08:17;;;;;;;17.67;9.20;;;;;;;13.34;100.00;100099.75;5000582;28;20200;-70
2023/07/03 04:10:44;;;;;;;16.70;8.53;;;;;;;13.44;100.00;100104.13;4999273;28;20196;-69
2023/07/03 04:13:11;;;;;;;16.40;8.67;;;;;;;13.62;100.00;100101.44;5003295;28;20227;-70
2023/07/03 04:15:55;;;;;;;18.33;7.97;;;;;;;13.87;100.00;100101.31;5008852;28;20219;-68
2023/07/03 04:18:23;;;;;;;17.60;7.60;;;;;;;14.07;100.00;100102.13;5001518;28;20312;-71
2023/07/03 04:20:50;;;;;;;16.90;7.67;;;;;;;14.25;98.90;100095.78;5010609;28;20723;-69
2023/07/03 04:23:17;;;;;;;16.47;7.17;;;;;;;14.46;96.05;100103.69;5009492;28;20220;-69
2023/07/03 04:25:43;;;;;;;15.93;8.07;;;;;;;14.65;94.28;100109.75;5009181;28;20303;-69
2023/07/03 04:28:15;;;;;;;18.97;7.53;;;;;;;14.71;93.45;100104.38;5002372;28;20197;-70
2023/07/03 04:30:41;;;;;;;19.27;7.70;;;;;;;14.82;93.20;100114.97;5004530;28;20192;-70
2023/07/03 04:33:07;;;;;;;18.43;8.23;;;;;;;15.00;94.06;100117.47;4994632;28;20221;-68
2023/07/03 04:35:36;;;;;;;20.30;7.67;;;;;;;15.09;92.25;100125.38;5000757;28;20224;-69
2023/07/03 04:38:03;;;;;;;12.30;6.77;;;;;;;15.15;92.61;100119.97;4993070;28;20860;-67
2023/07/03 04:40:30;;;;;;;16.27;7.87;;;;;;;15.28;92.85;100126.97;5004468;28;20200;-69
2023/07/03 04:42:57;;;;;;;16.23;7.97;;;;;;;15.36;89.31;100122.44;5006290;28;20227;-70
2023/07/03 04:45:26;;;;;;;18.20;7.70;;;;;;;15.52;88.81;100123.16;5018375;28;20268;-68
2023/07/03 04:47:53;;;;;;;16.33;7.13;;;;;;;15.58;89.03;100133.78;4994077;28;20228;-67
2023/07/03 04:50:24;;;;;;;18.47;6.97;;;;;;;15.67;86.73;100127.50;5009433;28;20551;-68
2023/07/03 04:52:52;;;;;;;16.27;7.37;;;;;;;15.72;86.92;100122.09;5000167;28;20327;-68
2023/07/03 04:55:19;;;;;;;17.50;7.53;;;;;;;15.84;86.74;100140.63;5000000;28;20200;-68
2023/07/03 04:57:46;;;;;;;16.73;7.10;;;;;;;15.89;85.81;100136.13;5004088;28;20228;-69
2023/07/03 05:00:16;;;;;;;19.17;7.03;;;;;;;16.09;84.93;100136.75;4997100;28;20205;-67
2023/07/03 05:02:47;;;;;;;18.47;7.07;;;;;;;16.12;83.76;100143.84;4995717;28;20327;-69
2023/07/03 05:05:16;;;;;;;17.17;7.07;;;;;;;16.29;82.71;100129.34;5000258;28;20227;-68
2023/07/03 05:07:44;;;;;;;15.83;6.70;;;;;;;16.44;80.75;100138.06;5009853;28;20193;-68
2023/07/03 05:10:12;;;;;;;15.13;6.20;;;;;;;16.64;79.92;100143.09;5008722;28;20234;-69
2023/07/03 05:12:39;;;;;;;19.40;6.53;;;;;;;16.56;78.81;100136.09;5002008;28;20219;-68
2023/07/03 05:15:09;;;;;;;17.53;6.80;;;;;;;16.71;78.57;100150.16;4974656;28;20562;-72
2023/07/03 05:17:38;;;;;;;15.30;6.00;;;;;;;16.84;77.95;100149.06;5003708;28;20208;-69
2023/07/03 05:20:08;;;;;;;17.30;5.57;;;;;;;16.86;77.12;100155.28;5015024;28;20258;-68
2023/07/03 05:22:37;;;;;;;15.27;5.27;;;;;;;17.05;76.40;100158.53;5018000;28;20220;-68
2023/07/03 05:25:04;;;;;;;14.87;5.63;;;;;;;17.14;75.83;100155.69;5011709;28;20219;-69
2023/07/03 05:27:30;;;;;;;14.83;5.33;;;;;;;17.29;75.06;100162.59;5014941;28;20199;-68
2023/07/03 05:29:59;;;;;;;13.03;5.27;;;;;;;17.49;74.57;100168.44;5004042;28;20200;-70
2023/07/03 05:32:27;;;;;;;15.13;5.83;;;;;;;17.58;73.27;100156.69;5002572;28;20656;-68
2023/07/03 05:34:54;;;;;;;13.43;4.97;;;;;;;17.72;71.63;100162.72;5006782;28;20254;-68
2023/07/03 05:37:20;;;;;;;11.60;5.30;;;;;;;17.79;71.10;100164.34;5005037;28;20199;-69
2023/07/03 05:39:48;;;;;;;17.97;5.67;;;;;;;17.81;71.49;100167.88;5007411;28;20216;-70
2023/07/03 05:42:19;;;;;;;14.53;5.50;;;;;;;17.98;69.99;100163.06;5001479;28;20789;-71
2023/07/03 05:44:46;;;;;;;14.83;5.13;;;;;;;17.87;70.24;100180.28;5009602;28;20196;-68
2023/07/03 05:47:14;;;;;;;15.53;5.70;;;;;;;17.97;69.56;100177.38;5001686;28;20256;-68
2023/07/03 05:49:41;;;;;;;12.50;5.10;;;;;;;18.01;68.74;100175.50;5002446;28;21562;-68
2023/07/03 05:52:09;;;;;;;13.93;5.30;;;;;;;18.17;68.70;100171.63;5007083;28;20234;-68
2023/07/03 05:54:35;;;;;;;13.43;4.83;;;;;;;18.37;67.87;100172.06;5014968;28;20200;-68
2023/07/03 05:57:05;;;;;;;14.90;4.90;;;;;;;18.57;65.89;100170.75;5017200;28;20202;-68
2023/07/03 05:59:33;;;;;;;12.03;4.43;;;;;;;18.81;65.01;100169.31;5017501;28;20223;-68
2023/07/03 06:01:59;;;;;;;17.57;4.60;;;;;;;18.73;63.95;100174.88;5006806;28;20778;-68
2023/07/03 06:04:25;;;;;;;16.10;4.60;;;;;;;18.85;63.48;100177.28;4991161;28;20208;-69
2023/07/03 06:06:55;;;;;;;13.77;4.73;;;;;;;18.74;63.40;100187.34;4998852;28;20208;-67
2023/07/03 06:09:22;;;;;;;13.77;4.63;;;;;;;18.57;63.66;100182.34;4999837;28;20200;-68
2023/07/03 06:11:49;;;;;;;13.47;4.70;;;;;;;18.55;64.17;100178.81;4999539;28;20256;-68
2023/07/03 06:14:17;;;;;;;12.87;4.43;;;;;;;18.59;63.53;100188.56;4999874;28;20204;-68
2023/07/03 06:16:45;;;;;;;10.93;4.00;;;;;;;18.78;63.42;100181.88;4999646;28;20203;-68
2023/07/03 06:19:12;;;;;;;12.17;4.43;;;;;;;19.07;62.38;100186.56;5002945;28;20216;-68
2023/07/03 06:21:39;;;;;;;12.00;4.07;;;;;;;19.31;60.18;100194.94;5002832;28;20203;-68
2023/07/03 06:24:08;;;;;;;15.70;4.43;;;;;;;19.42;60.17;100191.03;5003949;28;20203;-68
2023/07/03 06:26:35;;;;;;;13.60;3.93;;;;;;;19.47;59.70;100201.66;5002899;28;20220;-68
2023/07/03 06:29:02;;;;;;;11.53;4.03;;;;;;;19.35;60.05;100205.56;5003451;28;20200;-68
2023/07/03 06:31:29;;;;;;;13.63;4.23;;;;;;;19.65;59.05;100203.03;5003306;28;20693;-68
2023/07/03 06:33:55;;;;;;;17.50;4.23;;;;;;;19.58;58.61;100209.47;5003659;28;20208;-68
2023/07/03 06:36:22;;;;;;;9.60;3.53;;;;;;;19.60;58.63;100211.19;5003799;28;20574;-68
2023/07/03 06:38:57;;;;;;;12.63;4.00;;;;;;;19.71;57.87;100203.75;4995151;28;20223;-68
2023/07/03 06:41:28;;;;;;;10.77;4.33;;;;;;;19.93;57.69;100205.84;5005563;28;20196;-68
2023/07/03 06:43:55;;;;;;;10.47;3.80;;;;;;;20.09;56.88;100217.94;5003757;28;20597;-68
2023/07/03 06:46:22;;;;;;;8.97;4.00;;;;;;;19.54;57.42;100215.84;5003321;28;20196;-68
2023/07/03 06:48:49;;;;;;;13.30;4.30;;;;;;;19.06;60.31;100211.63;5003758;28;20188;-68
2023/07/03 06:51:16;;;;;;;8.23;3.63;;;;;;;18.59;61.69;100215.38;5004910;28;20196;-68
2023/07/03 06:53:42;;;;;;;13.60;4.27;;;;;;;18.47;62.69;100216.56;5001637;28;20232;-68
2023/07/03 06:56:09;;;;;;;15.47;4.03;;;;;;;18.55;62.85;100211.00;5002964;28;20192;-67
2023/07/03 06:58:36;;;;;;;8.97;4.17;;;;;;;18.70;62.69;100213.38;5001610;28;20896;-68
2023/07/03 07:01:22;;;;;;;12.23;4.10;;;;;;;18.60;61.76;100221.63;5008160;28;20197;-68
2023/07/03 07:03:49;;;;;;;11.30;3.60;;;;;;;18.81;61.97;100210.44;5011642;28;20278;-67
2023/07/03 07:06:20;;;;;;;11.27;4.90;;;;;;;19.02;61.28;100206.38;5003470;28;20196;-68
2023/07/03 07:08:46;;;;;;;9.97;3.73;;;;;;;19.54;59.06;100203.28;5004935;28;20192;-69
2023/07/03 07:11:16;;;;;;;11.97;3.53;;;;;;;20.14;57.03;100213.31;5008082;28;20254;-68
2023/07/03 07:13:45;;;;;;;15.23;3.57;;;;;;;21.97;50.67;100199.31;5008842;28;20266;-68
2023/07/03 07:16:12;;;;;;;12.10;3.33;;;;;;;22.97;46.30;100200.03;5007674;28;20270;-67
2023/07/03 07:18:40;;;;;;;9.57;3.00;;;;;;;22.02;48.78;100209.97;5008830;28;20220;-68
2023/07/03 07:21:07;;;;;;;8.50;3.00;;;;;;;21.19;49.85;100209.19;5006067;28;20212;-70
2023/07/03 07:23:33;;;;;;;8.67;3.13;;;;;;;22.72;46.67;100210.00;5009739;28;20231;-70
2023/07/03 07:26:00;;;;;;;7.27;3.20;;;;;;;23.55;44.31;100204.81;5001735;28;20470;-71
2023/07/03 07:28:26;;;;;;;9.50;3.17;;;;;;;23.58;43.01;100211.00;5008687;28;20215;-71
2023/07/03 07:30:53;;;;;;;9.40;3.50;;;;;;;21.86;47.45;100210.50;5001221;28;20744;-70
2023/07/03 07:33:20;;;;;;;10.17;3.20;;;;;;;21.36;48.99;100200.59;5000867;28;20224;-69
2023/07/03 07:35:47;;;;;;;13.50;3.43;;;;;;;21.99;47.15;100200.16;5000834;28;20198;-71
2023/07/03 07:38:14;;;;;;;10.13;3.30;;;;;;;21.83;47.83;100185.47;4999066;28;20626;-71
2023/07/03 07:40:40;;;;;;;10.47;3.27;;;;;;;23.67;44.24;100190.84;5001075;28;20231;-71
2023/07/03 07:43:07;;;;;;;10.93;3.85;;;;;;;25.59;40.08;100182.56;5001812;28;20302;-73
2023/07/03 07:45:33;;;;;;;11.43;3.65;;;;;;;25.37;39.38;100189.16;5001383;28;20201;-73
2023/07/03 07:48:00;;;;;;;9.02;3.60;;;;;;;25.01;39.51;100184.63;4995362;28;20211;-74
2023/07/03 07:50:27;;;;;;;8.32;3.10;;;;;;;24.30;41.03;100181.66;5022838;28;20201;-73
2023/07/03 07:52:55;;;;;;;12.27;3.63;;;;;;;23.78;42.08;100193.06;5009096;28;20290;-74
2023/07/03 07:55:22;;;;;;;13.30;3.47;;;;;;;23.84;42.16;100193.66;5006974;28;20196;-73
2023/07/03 07:57:48;;;;;;;10.68;3.33;;;;;;;24.24;40.65;100189.16;5005564;28;20288;-73
2023/07/03 08:00:15;;;;;;;8.38;3.00;;;;;;;24.63;40.71;100191.88;5007858;28;20220;-75
2023/07/03 08:02:41;;;;;;;11.02;2.83;;;;;;;24.24;40.74;100200.00;5007124;28;20220;-72
2023/07/03 08:05:08;;;;;;;9.90;3.30;;;;;;;;;;5005065;28;20649;-71
2023/07/03 08:07:34;;;;;;;9.18;3.30;;;;;;;23.16;43.14;100212.78;5005660;28;20192;-72
2023/07/03 08:10:01;;;;;;;8.93;2.83;;;;;;;23.05;42.43;100205.13;5002381;28;20203;-72
2023/07/03 08:12:27;;;;;;;10.40;3.00;;;;;;;22.57;43.09;100214.19;5003706;28;20323;-72
2023/07/03 08:14:54;;;;;;;11.27;3.17;;;;;;;22.74;43.63;100202.72;5005237;28;20254;-72
2023/07/03 08:17:20;;;;;;;6.22;2.78;;;;;;;22.65;43.69;100214.78;5012613;28;20196;-71
2023/07/03 08:19:47;;;;;;;12.55;2.80;;;;;;;22.10;43.93;100219.56;5007541;28;20223;-71
2023/07/03 08:22:13;;;;;;;6.55;2.60;;;;;;;22.11;43.92;100215.94;5003468;28;20679;-72
2023/07/03 08:24:39;;;;;;;8.05;2.80;;;;;;;21.90;45.22;100216.66;5005263;28;20716;-71
2023/07/03 08:27:06;;;;;;;7.20;2.60;;;;;;;21.66;45.71;100214.84;5001751;28;20612;-73
2023/07/03 08:29:32;;;;;;;7.28;2.47;;;;;;;21.79;45.85;100214.34;5001863;28;20204;-70
2023/07/03 08:31:59;;;;;;;7.55;2.90;;;;;;;21.76;45.41;100222.56;5006184;28;20239;-71
2023/07/03 08:34:25;;;;;;;9.93;2.50;;;;;;;21.85;45.46;100221.34;5003640;28;20238;-70
2023/07/03 08:36:52;;;;;;;8.90;2.80;;;;;;;22.05;45.38;100221.56;5004758;28;20288;-71
2023/07/03 08:39:21;;;;;;;8.60;2.53;;;;;;;22.37;44.55;100219.47;5003107;28;20699;-70
2023/07/03 08:41:54;;;;;;;8.48;2.92;;;;;;;22.19;44.60;100213.84;5006043;28;20220;-70
2023/07/03 08:44:21;;;;;;;9.68;2.90;;;;;;;22.54;44.03;100224.25;5003895;28;21390;-71
2023/07/03 08:46:48;;;;;;;10.93;3.17;;;;;;;22.43;44.58;100228.25;5005364;28;20192;-71
2023/07/03 08:49:36;;;;;;;10.13;3.15;;;;;;;21.52;44.99;100220.69;5005889;28;20702;-71
2023/07/03 08:52:03;;;;;;;6.45;2.50;;;;;;;21.70;45.13;100221.91;5004499;28;20600;-70
2023/07/03 08:54:34;;;;;;;6.90;2.80;;;;;;;21.61;45.30;100224.88;5001810;28;20204;-71
2023/07/03 08:57:03;;;;;;;7.82;2.70;;;;;;;21.53;45.66;100225.16;5004020;28;20674;-70
2023/07/03 08:59:30;;;;;;;7.55;2.97;;;;;;;21.98;45.21;100219.06;5003462;28;20278;-71
2023/07/03 09:02:07;;;;;;;9.80;3.10;;;;;;;22.02;45.48;100221.63;5000716;28;21687;-71
2023/07/03 09:05:06;;;;;;;9.77;3.22;;;;;;;22.22;44.92;100220.06;5001547;28;20207;-70
2023/07/03 09:07:40;;;;;;;9.88;2.95;;;;;;;22.34;44.40;100215.06;5003061;28;20196;-70
2023/07/03 09:10:42;;;;;;;9.73;3.25;;;;;;;22.50;44.64;100218.09;5004276;28;20192;-72
2023/07/03 09:13:15;;;;;;;7.47;2.95;;;;;;;22.26;46.21;100206.38;4996202;28;20596;-71
2023/07/03 09:15:55;;;;;;;8.15;3.10;;;;;;;22.01;46.17;100222.53;5004561;28;20755;-71
2023/07/03 09:18:27;;;;;;;8.10;3.20;;;;;;;21.94;46.55;100212.03;5016354;28;20284;-71
2023/07/03 09:20:56;;;;;;;10.73;3.60;;;;;;;22.29;46.65;100213.47;5003948;28;20261;-70
2023/07/03 09:23:28;;;;;;;7.28;3.33;;;;;;;22.55;45.48;100215.19;5001398;28;20215;-71
2023/07/03 09:26:02;;;;;;;7.45;3.08;;;;;;;22.03;46.31;100222.53;5004112;28;20630;-71
2023/07/03 09:28:36;;;;;;;9.10;3.55;;;;;;;21.83;46.69;100224.09;5003278;28;20231;-72
2023/07/03 09:31:03;;;;;;;8.93;3.20;;;;;;;21.59;46.95;100225.81;5004747;28;20258;-70
2023/07/03 09:33:31;;;;;;;5.97;2.95;;;;;;;21.67;47.87;100236.38;5003258;28;20231;-71
2023/07/03 09:36:18;;;;;;;9.45;3.97;;;;;;;21.45;48.53;100222.72;5003470;28;20214;-71
2023/07/03 09:38:45;;;;;;;7.53;3.20;;;;;;;21.55;48.08;100237.63;5002243;28;20196;-71
2023/07/03 09:41:12;;;;;;;7.57;3.58;;;;;;;21.66;47.86;100226.50;5002437;28;20211;-72
2023/07/03 09:43:43;;;;;;;8.60;3.53;;;;;;;22.51;46.95;100227.94;5002887;28;20228;-70
2023/07/03 09:46:13;;;;;;;7.95;3.33;;;;;;;22.97;44.05;100228.88;5003140;28;20198;-70
2023/07/03 09:48:40;;;;;;;10.27;3.10;;;;;;;23.31;44.06;100226.56;5004963;28;20197;-71
2023/07/03 09:51:20;;;;;;;6.43;3.35;;;;;;;22.87;44.01;100219.38;5004246;28;20215;-73
2023/07/03 09:53:46;;;;;;;8.10;3.40;;;;;;;23.48;44.06;100223.13;5019887;28;20223;-69
2023/07/03 09:56:21;;;;;;;7.15;3.38;;;;;;;23.37;43.55;100223.59;5007821;28;20192;-68
2023/07/03 09:58:51;;;;;;;12.02;3.60;;;;;;;23.88;42.77;100224.16;5008651;28;20653;-69
2023/07/03 10:01:22;;;;;;;8.40;3.40;;;;;;;22.94;43.33;100227.19;5005926;28;20212;-69
2023/07/03 10:04:04;;;;;;;9.68;3.15;;;;;;;22.88;44.21;100224.72;5005921;28;20215;-69
2023/07/03 10:06:58;;;;;;;7.05;3.60;;;;;;;22.97;44.90;100229.75;5004378;28;20738;-69
2023/07/03 10:09:30;;;;;;;8.32;3.50;;;;;;;23.02;45.00;100233.16;5005745;28;20188;-69
2023/07/03 10:12:04;;;;;;;8.30;3.63;;;;;;;23.08;44.95;100226.59;5008010;28;20223;-69
2023/07/03 10:14:51;;;;;;;12.10;3.40;;;;;;;22.89;45.02;100231.88;5005392;28;20201;-70
2023/07/03 10:17:27;;;;;;;11.82;3.92;;;;;;;22.87;45.65;100231.06;5004143;28;20192;-70
2023/07/03 10:20:00;;;;;;;9.63;4.45;;;;;;;22.67;45.91;100237.19;5004898;28;20434;-70
2023/07/03 10:22:27;;;;;;;8.63;3.53;;;;;;;22.94;45.18;100223.59;5007352;28;20622;-69
2023/07/03 10:25:01;;;;;;;9.55;3.65;;;;;;;23.04;45.36;100228.56;5006639;28;20203;-70
2023/07/03 10:27:28;;;;;;;9.50;3.60;;;;;;;23.44;44.42;100227.78;5006543;28;20207;-70
2023/07/03 10:29:55;;;;;;;10.05;3.63;;;;;;;24.15;43.18;100222.94;5005768;28;20204;-71
2023/07/03 10:32:25;;;;;;;9.82;4.03;;;;;;;24.18;42.95;100219.22;5007738;28;20216;-70
2023/07/03 10:35:10;;;;;;;18.85;4.65;;;;;;;23.79;43.48;100217.34;5004866;28;20200;-70
2023/07/03 10:37:45;;;;;;;33.28;6.05;;;;;;;23.84;44.18;100211.72;5007640;28;20203;-70
2023/07/03 10:40:22;;;;;;;19.10;4.47;;;;;;;23.97;43.05;100226.44;5003978;28;20694;-69
2023/07/03 10:42:56;;;;;;;8.90;3.90;;;;;;;24.01;43.09;100225.38;5006677;28;20881;-71
2023/07/03 10:45:24;;;;;;;7.47;3.13;;;;;;;24.12;41.98;100224.91;5000978;28;20667;-71
2023/07/03 10:48:02;;;;;;;10.07;3.65;;;;;;;24.47;41.78;100210.69;5004332;28;20192;-72
2023/07/03 10:50:40;;;;;;;7.63;3.50;;;;;;;24.67;40.45;100212.44;5009672;28;20232;-70
2023/07/03 10:53:24;;;;;;;9.00;3.70;;;;;;;24.56;40.43;100199.41;5004388;28;20334;-70
2023/07/03 10:55:57;;;;;;;6.43;3.30;;;;;;;24.74;39.74;100197.63;5010213;28;20208;-70
2023/07/03 10:59:01;;;;;;;9.27;3.15;;;;;;;24.81;39.11;100190.09;5006092;28;20286;-70
2023/07/03 11:01:59;;;;;;;9.27;3.05;;;;;;;25.27;39.62;100194.19;5006391;28;20251;-69
2023/07/03 11:04:49;;;;;;;69.32;8.15;;;;;;;26.05;37.54;100190.16;5000184;28;20312;-69
2023/07/03 11:07:24;;;;;;;11.75;3.20;;;;;;;26.42;36.98;100175.50;4994657;28;20212;-70
2023/07/03 11:10:22;;;;;;;7.18;2.92;;;;;;;26.54;36.12;100172.97;5006142;28;20449;-69
2023/07/03 11:13:01;;;;;;;7.82;2.70;;;;;;;26.41;36.24;100192.72;5002843;28;20239;-69
2023/07/03 11:16:01;;;;;;;7.32;2.72;;;;;;;26.38;36.84;100184.75;4999987;28;20226;-70
2023/07/03 11:19:02;;;;;;;8.75;3.42;;;;;;;26.44;36.86;100188.03;5001438;28;20205;-69
2023/07/03 11:21:32;;;;;;;5.90;2.65;;;;;;;26.42;36.10;100173.66;5003861;28;20318;-70
2023/07/03 11:24:25;;;;;;;9.48;2.65;;;;;;;26.03;36.41;100175.81;4997929;28;20204;-67
2023/07/03 11:27:01;;;;;;;10.88;2.90;;;;;;;25.22;38.30;100180.88;5005480;28;20279;-68
2023/07/03 11:29:31;;;;;;;6.88;3.20;;;;;;;25.68;38.73;100185.81;5003518;28;20200;-68